createdAt,value
2019-03-20T00:00:32.653Z,2.28
2019-03-20T00:01:43.191Z,2.38
2019-03-20T00:02:33.627Z,2.25
2019-03-20T00:03:32.611Z,2.31
2019-03-20T00:04:32.643Z,2.22
2019-03-20T00:05:32.740Z,2.31
2019-03-20T00:06:32.580Z,2.26
2019-03-20T00:07:32.598Z,2.28
2019-03-20T00:08:32.567Z,2.26
2019-03-20T00:09:32.557Z,2.26
2019-03-20T00:10:32.539Z,2.25
2019-03-20T00:11:32.526Z,2.26
2019-03-20T00:12:32.517Z,2.20
2019-03-20T00:13:32.505Z,2.25
2019-03-20T00:14:32.532Z,2.31
2019-03-20T00:15:32.495Z,2.25
2019-03-20T00:16:32.480Z,2.20
2019-03-20T00:17:32.461Z,2.24
2019-03-20T00:18:32.451Z,2.25
2019-03-20T00:19:32.442Z,2.29
2019-03-20T00:20:32.430Z,2.33
2019-03-20T00:21:32.421Z,2.20
2019-03-20T00:22:32.419Z,2.38
2019-03-20T00:23:32.402Z,2.33
2019-03-20T00:24:32.386Z,2.24
2019-03-20T00:25:32.392Z,2.17
2019-03-20T00:26:32.375Z,2.28
2019-03-20T00:27:32.359Z,2.24
2019-03-20T00:28:32.348Z,2.25
2019-03-20T00:29:32.365Z,2.28
2019-03-20T00:30:32.327Z,2.20
2019-03-20T00:31:32.315Z,2.31
2019-03-20T00:32:32.304Z,2.24
2019-03-20T00:33:32.298Z,2.22
2019-03-20T00:34:32.280Z,2.28
2019-03-20T00:35:32.288Z,2.25
2019-03-20T00:36:32.325Z,2.29
2019-03-20T00:37:32.249Z,2.28
2019-03-20T00:38:32.236Z,2.35
2019-03-20T00:39:32.225Z,2.28
2019-03-20T00:40:32.227Z,2.29
2019-03-20T00:41:32.211Z,2.32
2019-03-20T00:42:32.199Z,2.31
2019-03-20T00:43:32.202Z,2.28
2019-03-20T00:44:32.179Z,2.25
2019-03-20T00:45:32.170Z,2.29
2019-03-20T00:46:32.157Z,2.35
2019-03-20T00:47:32.140Z,2.32
2019-03-20T00:48:32.138Z,2.43
2019-03-20T00:49:32.121Z,2.35
2019-03-20T00:50:32.121Z,2.36
2019-03-20T00:51:32.316Z,2.36
2019-03-20T00:52:32.099Z,2.39
2019-03-20T00:53:32.117Z,2.39
2019-03-20T00:54:32.096Z,2.38
2019-03-20T00:55:32.066Z,2.39
2019-03-20T00:56:32.047Z,2.31
2019-03-20T00:57:32.039Z,2.35
2019-03-20T00:58:32.023Z,2.31
2019-03-20T00:59:32.021Z,2.38
2019-03-20T01:00:32.015Z,2.25
2019-03-20T01:01:32.001Z,2.26
2019-03-20T01:02:31.992Z,2.24
2019-03-20T01:03:31.975Z,2.25
2019-03-20T01:04:31.960Z,2.22
2019-03-20T01:05:31.962Z,2.24
2019-03-20T01:06:31.938Z,2.25
2019-03-20T01:07:31.932Z,2.18
2019-03-20T01:08:31.922Z,2.22
2019-03-20T01:09:31.914Z,2.24
2019-03-20T01:10:31.919Z,2.22
2019-03-20T01:11:31.890Z,2.24
2019-03-20T01:12:31.877Z,2.20
2019-03-20T01:13:31.964Z,2.14
2019-03-20T01:14:31.856Z,2.14
2019-03-20T01:15:31.856Z,2.20
2019-03-20T01:16:31.834Z,2.22
2019-03-20T01:17:31.828Z,2.18
2019-03-20T01:18:31.813Z,2.20
2019-03-20T01:19:31.811Z,2.24
2019-03-20T01:20:31.817Z,2.24
2019-03-20T01:21:31.807Z,2.17
2019-03-20T01:22:31.796Z,2.20
2019-03-20T01:23:31.759Z,2.24
2019-03-20T01:24:31.776Z,2.25
2019-03-20T01:25:31.764Z,2.26
2019-03-20T01:26:31.745Z,2.26
2019-03-20T01:27:31.729Z,2.17
2019-03-20T01:28:31.703Z,2.22
2019-03-20T01:29:31.773Z,2.17
2019-03-20T01:30:31.693Z,2.20
2019-03-20T01:31:31.708Z,2.18
2019-03-20T01:32:31.661Z,2.15
2019-03-20T01:33:31.652Z,2.25
2019-03-20T01:34:31.652Z,2.26
2019-03-20T01:35:31.784Z,2.22
2019-03-20T01:36:31.625Z,2.26
2019-03-20T01:37:31.609Z,2.25
2019-03-20T01:38:31.597Z,2.13
2019-03-20T01:39:31.588Z,2.17
2019-03-20T01:40:31.581Z,2.17
2019-03-20T01:41:37.909Z,2.20
2019-03-20T01:42:32.571Z,2.17
2019-03-20T01:43:31.569Z,2.08
2019-03-20T01:44:31.540Z,2.20
2019-03-20T01:45:31.532Z,2.14
2019-03-20T01:46:31.519Z,2.10
2019-03-20T01:47:31.510Z,2.10
2019-03-20T01:48:31.494Z,2.04
2019-03-20T01:49:31.483Z,1.99
2019-03-20T01:50:31.473Z,2.08
2019-03-20T01:51:31.460Z,2.00
2019-03-20T01:52:31.449Z,2.00
2019-03-20T01:53:31.440Z,1.95
2019-03-20T01:54:31.426Z,1.92
2019-03-20T01:55:31.420Z,1.92
2019-03-20T01:56:31.429Z,1.92
2019-03-20T01:57:31.406Z,1.91
2019-03-20T01:58:31.395Z,1.95
2019-03-20T01:59:31.371Z,1.94
2019-03-20T02:00:31.388Z,1.87
2019-03-20T02:01:31.365Z,1.78
2019-03-20T02:02:31.358Z,1.87
2019-03-20T02:03:31.356Z,1.80
2019-03-20T02:04:31.425Z,1.80
2019-03-20T02:05:36.388Z,1.76
2019-03-20T02:06:32.317Z,1.73
2019-03-20T02:07:31.287Z,1.85
2019-03-20T02:08:31.281Z,1.76
2019-03-20T02:09:31.276Z,1.80
2019-03-20T02:10:31.265Z,1.78
2019-03-20T02:11:31.287Z,1.81
2019-03-20T02:12:31.238Z,1.78
2019-03-20T02:13:31.230Z,1.77
2019-03-20T02:14:31.215Z,1.67
2019-03-20T02:15:38.667Z,1.62
2019-03-20T02:16:32.203Z,1.71
2019-03-20T02:17:31.181Z,1.68
2019-03-20T02:18:31.172Z,1.67
2019-03-20T02:19:31.258Z,1.58
2019-03-20T02:20:31.202Z,1.60
2019-03-20T02:21:31.176Z,1.62
2019-03-20T02:22:31.157Z,1.62
2019-03-20T02:23:31.131Z,1.53
2019-03-20T02:24:31.117Z,1.58
2019-03-20T02:25:32.447Z,1.59
2019-03-20T02:26:31.226Z,1.49
2019-03-20T02:27:31.078Z,1.55
2019-03-20T02:28:31.068Z,1.53
2019-03-20T02:29:31.075Z,1.56
2019-03-20T02:30:31.050Z,1.52
2019-03-20T02:31:31.050Z,1.55
2019-03-20T02:32:31.021Z,1.52
2019-03-20T02:33:31.020Z,1.59
2019-03-20T02:34:31.010Z,1.52
2019-03-20T02:35:30.991Z,1.48
2019-03-20T02:36:30.991Z,1.53
2019-03-20T02:37:30.980Z,1.55
2019-03-20T02:38:30.966Z,1.50
2019-03-20T02:39:30.949Z,1.48
2019-03-20T02:40:30.939Z,1.55
2019-03-20T02:41:30.967Z,1.45
2019-03-20T02:42:30.914Z,1.52
2019-03-20T02:43:30.916Z,1.52
2019-03-20T02:44:30.894Z,1.53
2019-03-20T02:45:30.888Z,1.55
2019-03-20T02:46:30.881Z,1.50
2019-03-20T02:47:30.862Z,1.55
2019-03-20T02:48:30.864Z,1.50
2019-03-20T02:49:30.841Z,1.55
2019-03-20T02:50:30.831Z,1.56
2019-03-20T02:51:30.844Z,1.55
2019-03-20T02:52:30.812Z,1.58
2019-03-20T02:53:30.802Z,1.53
2019-03-20T02:54:30.798Z,1.49
2019-03-20T02:55:30.797Z,1.50
2019-03-20T02:56:30.780Z,1.53
2019-03-20T02:57:30.777Z,1.56
2019-03-20T02:58:30.774Z,1.56
2019-03-20T02:59:30.750Z,1.48
2019-03-20T03:00:30.730Z,1.48
2019-03-20T03:01:30.722Z,1.58
2019-03-20T03:02:30.704Z,1.55
2019-03-20T03:03:30.706Z,1.53
2019-03-20T03:04:30.695Z,1.58
2019-03-20T03:05:30.714Z,1.55
2019-03-20T03:06:30.695Z,1.45
2019-03-20T03:07:30.650Z,1.40
2019-03-20T03:08:30.638Z,1.50
2019-03-20T03:09:30.636Z,1.41
2019-03-20T03:10:30.755Z,1.44
2019-03-20T03:11:30.614Z,1.44
2019-03-20T03:12:30.601Z,1.45
2019-03-20T03:13:30.628Z,1.50
2019-03-20T03:14:30.605Z,1.42
2019-03-20T03:15:30.591Z,1.37
2019-03-20T03:16:30.553Z,1.45
2019-03-20T03:17:30.647Z,1.34
2019-03-20T03:18:30.545Z,1.44
2019-03-20T03:19:30.522Z,1.55
2019-03-20T03:20:30.516Z,1.40
2019-03-20T03:21:30.509Z,1.40
2019-03-20T03:22:30.490Z,1.48
2019-03-20T03:23:30.511Z,1.44
2019-03-20T03:24:30.481Z,1.53
2019-03-20T03:25:30.461Z,1.53
2019-03-20T03:26:30.455Z,1.56
2019-03-20T03:27:30.439Z,1.44
2019-03-20T03:28:30.426Z,1.56
2019-03-20T03:29:30.425Z,1.53
2019-03-20T03:30:30.419Z,1.50
2019-03-20T03:31:30.413Z,1.50
2019-03-20T03:32:30.447Z,1.55
2019-03-20T03:33:30.384Z,1.59
2019-03-20T03:34:30.368Z,1.53
2019-03-20T03:35:30.724Z,1.52
2019-03-20T03:36:30.346Z,1.62
2019-03-20T03:37:30.347Z,1.66
2019-03-20T03:38:30.334Z,1.59
2019-03-20T03:39:30.428Z,1.62
2019-03-20T03:40:30.305Z,1.56
2019-03-20T03:41:30.287Z,1.62
2019-03-20T03:42:30.280Z,1.62
2019-03-20T03:43:30.268Z,1.66
2019-03-20T03:44:30.261Z,1.67
2019-03-20T03:45:30.251Z,1.68
2019-03-20T03:46:30.245Z,1.63
2019-03-20T03:47:30.236Z,1.70
2019-03-20T03:48:30.220Z,1.67
2019-03-20T03:49:30.222Z,1.66
2019-03-20T03:50:30.194Z,1.71
2019-03-20T03:51:30.183Z,1.67
2019-03-20T03:52:30.180Z,1.68
2019-03-20T03:53:30.170Z,1.73
2019-03-20T03:54:30.151Z,1.68
2019-03-20T03:55:30.161Z,1.68
2019-03-20T03:56:30.136Z,1.73
2019-03-20T03:57:30.128Z,1.68
2019-03-20T03:58:32.779Z,1.74
2019-03-20T03:59:30.104Z,1.74
2019-03-20T04:00:30.088Z,1.74
2019-03-20T04:01:30.207Z,1.73
2019-03-20T04:02:30.075Z,1.73
2019-03-20T04:03:30.057Z,1.74
2019-03-20T04:04:30.042Z,1.68
2019-03-20T04:05:30.040Z,1.74
2019-03-20T04:06:35.373Z,1.63
2019-03-20T04:07:31.021Z,1.67
2019-03-20T04:08:30.002Z,1.66
2019-03-20T04:09:30.037Z,1.71
2019-03-20T04:10:29.980Z,1.67
2019-03-20T04:11:29.970Z,1.60
2019-03-20T04:12:29.963Z,1.66
2019-03-20T04:13:29.960Z,1.58
2019-03-20T04:14:29.945Z,1.66
2019-03-20T04:15:29.927Z,1.58
2019-03-20T04:16:29.942Z,1.50
2019-03-20T04:17:29.924Z,1.66
2019-03-20T04:18:29.900Z,1.53
2019-03-20T04:19:29.892Z,1.58
2019-03-20T04:20:29.873Z,1.63
2019-03-20T04:21:29.866Z,1.59
2019-03-20T04:22:29.860Z,1.56
2019-03-20T04:23:29.850Z,1.62
2019-03-20T04:24:29.847Z,1.67
2019-03-20T04:25:29.819Z,1.60
2019-03-20T04:26:29.812Z,1.58
2019-03-20T04:27:29.811Z,1.62
2019-03-20T04:28:29.800Z,1.58
2019-03-20T04:29:29.775Z,1.62
2019-03-20T04:30:29.768Z,1.66
2019-03-20T04:31:29.772Z,1.55
2019-03-20T04:32:29.815Z,1.68
2019-03-20T04:33:29.832Z,1.59
2019-03-20T04:34:29.729Z,1.62
2019-03-20T04:35:29.740Z,1.71
2019-03-20T04:36:29.708Z,1.62
2019-03-20T04:37:29.695Z,1.68
2019-03-20T04:38:29.773Z,1.66
2019-03-20T04:39:29.692Z,1.71
2019-03-20T04:40:29.665Z,1.70
2019-03-20T04:41:29.659Z,1.67
2019-03-20T04:42:29.646Z,1.70
2019-03-20T04:43:29.661Z,1.62
2019-03-20T04:44:29.646Z,1.73
2019-03-20T04:45:29.605Z,1.70
2019-03-20T04:46:29.606Z,1.74
2019-03-20T04:47:29.583Z,1.76
2019-03-20T04:48:29.582Z,1.66
2019-03-20T04:49:29.613Z,1.71
2019-03-20T04:50:29.564Z,1.71
2019-03-20T04:51:29.544Z,1.73
2019-03-20T04:52:29.531Z,1.76
2019-03-20T04:53:29.535Z,1.73
2019-03-20T04:54:29.509Z,1.78
2019-03-20T04:55:29.535Z,1.66
2019-03-20T04:56:29.489Z,1.71
2019-03-20T04:57:29.484Z,1.62
2019-03-20T04:58:29.482Z,1.68
2019-03-20T04:59:29.470Z,1.62
2019-03-20T05:00:29.653Z,1.66
2019-03-20T05:01:29.437Z,1.66
2019-03-20T05:02:29.427Z,1.63
2019-03-20T05:03:29.425Z,1.59
2019-03-20T05:04:29.408Z,1.62
2019-03-20T05:05:29.396Z,1.62
2019-03-20T05:06:29.393Z,1.59
2019-03-20T05:07:29.414Z,1.52
2019-03-20T05:08:29.371Z,1.56
2019-03-20T05:09:29.353Z,1.55
2019-03-20T05:10:29.338Z,1.56
2019-03-20T05:11:29.358Z,1.52
2019-03-20T05:12:29.329Z,1.52
2019-03-20T05:13:29.315Z,1.48
2019-03-20T05:14:29.298Z,1.44
2019-03-20T05:15:29.289Z,1.44
2019-03-20T05:16:29.284Z,1.45
2019-03-20T05:17:29.265Z,1.35
2019-03-20T05:18:29.261Z,1.41
2019-03-20T05:19:29.244Z,1.37
2019-03-20T05:20:29.230Z,1.38
2019-03-20T05:21:29.224Z,1.35
2019-03-20T05:22:29.231Z,1.35
2019-03-20T05:23:29.209Z,1.35
2019-03-20T05:24:29.200Z,1.31
2019-03-20T05:25:29.187Z,1.24
2019-03-20T05:26:29.227Z,1.26
2019-03-20T05:27:29.223Z,1.23
2019-03-20T05:28:29.161Z,1.23
2019-03-20T05:29:29.139Z,1.20
2019-03-20T05:30:29.149Z,1.16
2019-03-20T05:31:29.121Z,1.08
2019-03-20T05:32:29.121Z,1.12
2019-03-20T05:33:29.116Z,1.08
2019-03-20T05:34:29.101Z,1.01
2019-03-20T05:35:29.082Z,1.08
2019-03-20T05:36:29.060Z,0.98
2019-03-20T05:37:29.151Z,0.95
2019-03-20T05:38:29.056Z,1.04
2019-03-20T05:39:29.050Z,1.04
2019-03-20T05:40:29.022Z,1.05
2019-03-20T05:41:29.016Z,0.95
2019-03-20T05:42:28.998Z,0.96
2019-03-20T05:43:29.000Z,1.02
2019-03-20T05:44:29.013Z,1.02
2019-03-20T05:45:28.970Z,1.01
2019-03-20T05:46:28.953Z,1.05
2019-03-20T05:47:28.972Z,1.04
2019-03-20T05:48:28.964Z,1.01
2019-03-20T05:49:28.994Z,1.10
2019-03-20T05:50:29.022Z,1.08
2019-03-20T05:51:28.942Z,1.06
2019-03-20T05:52:28.903Z,1.05
2019-03-20T05:53:28.936Z,1.17
2019-03-20T05:54:28.966Z,1.13
2019-03-20T05:55:28.907Z,1.12
2019-03-20T05:56:28.860Z,1.12
2019-03-20T05:57:28.839Z,1.23
2019-03-20T05:58:28.830Z,1.22
2019-03-20T05:59:29.106Z,1.26
2019-03-20T06:00:28.818Z,1.23
2019-03-20T06:01:28.815Z,1.22
2019-03-20T06:02:28.814Z,1.31
2019-03-20T06:03:28.809Z,1.32
2019-03-20T06:04:28.778Z,1.31
2019-03-20T06:05:28.833Z,1.37
2019-03-20T06:06:28.744Z,1.32
2019-03-20T06:07:28.739Z,1.32
2019-03-20T06:08:31.194Z,1.38
2019-03-20T06:09:28.793Z,1.31
2019-03-20T06:10:28.708Z,1.38
2019-03-20T06:11:28.713Z,1.40
2019-03-20T06:12:28.692Z,1.42
2019-03-20T06:13:28.674Z,1.44
2019-03-20T06:14:28.835Z,1.44
2019-03-20T06:15:28.672Z,1.41
2019-03-20T06:16:28.640Z,1.49
2019-03-20T06:17:28.631Z,1.56
2019-03-20T06:18:28.625Z,1.49
2019-03-20T06:19:28.621Z,1.55
2019-03-20T06:20:28.604Z,1.52
2019-03-20T06:21:28.623Z,1.52
2019-03-20T06:22:28.595Z,1.59
2019-03-20T06:23:28.564Z,1.62
2019-03-20T06:24:28.569Z,1.59
2019-03-20T06:25:28.569Z,1.68
2019-03-20T06:26:28.666Z,1.73
2019-03-20T06:27:28.528Z,1.70
2019-03-20T06:28:28.529Z,1.76
2019-03-20T06:29:28.557Z,1.81
2019-03-20T06:30:28.487Z,1.77
2019-03-20T06:31:28.479Z,1.81
2019-03-20T06:32:28.499Z,1.87
2019-03-20T06:33:28.453Z,1.89
2019-03-20T06:34:28.447Z,1.92
2019-03-20T06:35:28.440Z,1.99
2019-03-20T06:36:28.497Z,2.06
2019-03-20T06:37:32.477Z,2.02
2019-03-20T06:38:28.527Z,2.22
2019-03-20T06:39:28.528Z,2.13
2019-03-20T06:40:28.381Z,2.22
2019-03-20T06:41:28.371Z,2.28
2019-03-20T06:42:28.368Z,2.26
2019-03-20T06:43:28.547Z,2.31
2019-03-20T06:44:28.410Z,2.31
2019-03-20T06:45:28.493Z,2.47
2019-03-20T06:46:28.375Z,2.53
2019-03-20T06:47:28.304Z,2.53
2019-03-20T06:48:28.329Z,2.54
2019-03-20T06:49:28.304Z,2.56
2019-03-20T06:50:28.967Z,2.62
2019-03-20T06:51:28.311Z,2.62
2019-03-20T06:52:28.299Z,2.67
2019-03-20T06:53:28.254Z,2.83
2019-03-20T06:54:28.251Z,2.85
2019-03-20T06:55:28.322Z,2.75
2019-03-20T06:56:28.211Z,2.83
2019-03-20T06:57:28.200Z,2.87
2019-03-20T06:58:28.193Z,2.95
2019-03-20T06:59:28.178Z,3.04
2019-03-20T07:00:28.178Z,3.07
2019-03-20T07:01:28.229Z,3.05
2019-03-20T07:02:28.166Z,3.11
2019-03-20T07:03:28.138Z,3.19
2019-03-20T07:04:28.128Z,3.11
2019-03-20T07:05:28.198Z,3.31
2019-03-20T07:06:28.105Z,3.26
2019-03-20T07:07:28.124Z,3.42
2019-03-20T07:08:28.084Z,3.31
2019-03-20T07:09:28.070Z,3.40
2019-03-20T07:10:28.070Z,3.37
2019-03-20T07:11:28.073Z,3.45
2019-03-20T07:12:28.057Z,3.50
2019-03-20T07:13:28.035Z,3.55
2019-03-20T07:14:28.061Z,3.55
2019-03-20T07:15:28.041Z,3.66
2019-03-20T07:16:27.995Z,3.62
2019-03-20T07:17:27.986Z,3.62
2019-03-20T07:18:27.976Z,3.73
2019-03-20T07:19:27.970Z,3.74
2019-03-20T07:20:28.021Z,3.76
2019-03-20T07:21:27.946Z,3.73
2019-03-20T07:22:27.936Z,3.77
2019-03-20T07:23:27.923Z,3.77
2019-03-20T07:24:27.913Z,3.88
2019-03-20T07:25:27.906Z,3.94
2019-03-20T07:26:28.777Z,3.96
2019-03-20T07:27:28.018Z,3.98
2019-03-20T07:28:27.881Z,4.01
2019-03-20T07:29:27.868Z,4.06
2019-03-20T07:30:27.848Z,4.14
2019-03-20T07:31:27.860Z,4.16
2019-03-20T07:32:29.996Z,4.16
2019-03-20T07:33:27.827Z,4.23
2019-03-20T07:34:27.806Z,4.24
2019-03-20T07:35:27.794Z,4.34
2019-03-20T07:36:27.795Z,4.37
2019-03-20T07:37:27.807Z,4.38
2019-03-20T07:38:27.773Z,4.42
2019-03-20T07:39:27.757Z,4.44
2019-03-20T07:40:27.775Z,4.48
2019-03-20T07:41:27.735Z,4.53
2019-03-20T07:42:27.730Z,4.60
2019-03-20T07:43:27.750Z,4.60
2019-03-20T07:44:27.734Z,4.68
2019-03-20T07:45:27.692Z,4.73
2019-03-20T07:46:27.694Z,4.78
2019-03-20T07:47:27.685Z,4.82
2019-03-20T07:48:27.665Z,4.90
2019-03-20T07:49:27.698Z,4.86
2019-03-20T07:50:27.658Z,4.84
2019-03-20T07:51:27.635Z,4.90
2019-03-20T07:52:27.616Z,4.84
2019-03-20T07:53:27.607Z,4.97
2019-03-20T07:54:27.596Z,4.99
2019-03-20T07:55:27.597Z,5.05
2019-03-20T07:56:27.621Z,5.04
2019-03-20T07:57:27.565Z,5.17
2019-03-20T07:58:27.564Z,5.21
2019-03-20T07:59:27.547Z,5.21
2019-03-20T08:00:27.541Z,5.32
2019-03-20T08:01:27.545Z,5.47
2019-03-20T08:02:27.510Z,5.46
2019-03-20T08:03:27.499Z,5.53
2019-03-20T08:04:27.494Z,5.54
2019-03-20T08:05:29.440Z,5.65
2019-03-20T08:06:27.482Z,5.71
2019-03-20T08:07:27.535Z,5.87
2019-03-20T08:08:27.478Z,5.93
2019-03-20T08:09:27.451Z,5.98
2019-03-20T08:10:27.428Z,6.11
2019-03-20T08:11:27.565Z,6.19
2019-03-20T08:12:27.402Z,6.30
2019-03-20T08:13:27.395Z,6.38
2019-03-20T08:14:27.381Z,6.44
2019-03-20T08:15:27.374Z,6.56
2019-03-20T08:16:27.393Z,6.75
2019-03-20T08:17:27.348Z,6.85
2019-03-20T08:18:27.338Z,7.13
2019-03-20T08:19:27.327Z,7.24
2019-03-20T08:20:27.317Z,7.43
2019-03-20T08:21:27.315Z,7.54
2019-03-20T08:22:27.311Z,7.77
2019-03-20T08:23:27.289Z,7.83
2019-03-20T08:24:27.297Z,8.15
2019-03-20T08:25:27.267Z,8.45
2019-03-20T08:26:27.272Z,8.58
2019-03-20T08:27:27.248Z,8.85
2019-03-20T08:28:27.234Z,9.16
2019-03-20T08:29:27.234Z,9.51
2019-03-20T08:30:27.216Z,9.68
2019-03-20T08:31:27.218Z,10.07
2019-03-20T08:32:27.190Z,10.41
2019-03-20T08:33:27.256Z,10.79
2019-03-20T08:34:27.167Z,11.05
2019-03-20T08:35:27.156Z,11.33
2019-03-20T08:36:27.150Z,11.66
2019-03-20T08:37:27.132Z,11.87
2019-03-20T08:38:27.130Z,12.27
2019-03-20T08:39:27.117Z,12.53
2019-03-20T08:40:27.131Z,12.73
2019-03-20T08:41:27.119Z,12.95
2019-03-20T08:42:41.688Z,13.30
2019-03-20T08:43:27.085Z,13.57
2019-03-20T08:44:27.076Z,13.81
2019-03-20T08:45:27.064Z,13.92
2019-03-20T08:46:27.064Z,14.15
2019-03-20T08:47:48.072Z,14.41
2019-03-20T08:48:27.050Z,14.58
2019-03-20T08:49:27.018Z,14.65
2019-03-20T08:50:26.994Z,14.85
2019-03-20T08:51:26.993Z,14.97
2019-03-20T08:52:26.979Z,15.21
2019-03-20T08:53:26.978Z,15.29
2019-03-20T08:54:26.948Z,15.42
2019-03-20T08:55:26.945Z,15.59
2019-03-20T08:56:26.956Z,15.64
2019-03-20T08:57:26.941Z,15.52
2019-03-20T08:58:47.937Z,15.61
2019-03-20T08:59:26.963Z,15.76
2019-03-20T09:00:26.921Z,15.84
2019-03-20T09:01:28.960Z,15.90
2019-03-20T09:02:26.864Z,15.91
2019-03-20T09:03:27.007Z,16.09
2019-03-20T09:04:26.844Z,16.15
2019-03-20T09:05:26.841Z,16.16
2019-03-20T09:06:26.823Z,16.26
2019-03-20T09:07:26.806Z,16.23
2019-03-20T09:08:29.601Z,16.36
2019-03-20T09:09:26.784Z,16.42
2019-03-20T09:10:26.841Z,16.50
2019-03-20T09:11:26.770Z,16.57
2019-03-20T09:12:26.769Z,16.78
2019-03-20T09:13:26.742Z,16.93
2019-03-20T09:14:26.792Z,17.06
2019-03-20T09:15:26.721Z,17.02
2019-03-20T09:16:27.385Z,16.91
2019-03-20T09:17:26.743Z,16.84
2019-03-20T09:18:26.692Z,16.76
2019-03-20T09:19:26.678Z,16.71
2019-03-20T09:20:26.686Z,16.54
2019-03-20T09:21:26.687Z,16.66
2019-03-20T09:22:26.662Z,16.74
2019-03-20T09:23:26.677Z,16.50
2019-03-20T09:24:26.626Z,16.53
2019-03-20T09:25:26.618Z,16.41
2019-03-20T09:26:26.607Z,16.47
2019-03-20T09:27:26.610Z,16.26
2019-03-20T09:28:26.585Z,16.29
2019-03-20T09:29:35.634Z,16.32
2019-03-20T09:30:27.556Z,16.29
2019-03-20T09:31:26.544Z,16.24
2019-03-20T09:32:26.732Z,16.21
2019-03-20T09:33:26.540Z,16.24
2019-03-20T09:34:26.514Z,16.38
2019-03-20T09:35:26.552Z,16.42
2019-03-20T09:36:26.494Z,16.51
2019-03-20T09:37:26.517Z,16.64
2019-03-20T09:38:26.470Z,16.61
2019-03-20T09:39:26.474Z,16.60
2019-03-20T09:40:26.449Z,16.54
2019-03-20T09:41:26.437Z,16.58
2019-03-20T09:42:26.428Z,16.65
2019-03-20T09:43:26.419Z,16.46
2019-03-20T09:44:26.410Z,16.39
2019-03-20T09:45:26.394Z,16.17
2019-03-20T09:46:26.390Z,16.09
2019-03-20T09:47:26.395Z,16.26
2019-03-20T09:48:26.366Z,16.26
2019-03-20T09:49:26.370Z,16.15
2019-03-20T09:50:26.349Z,15.98
2019-03-20T09:51:26.343Z,15.83
2019-03-20T09:52:26.333Z,15.61
2019-03-20T09:53:26.316Z,15.42
2019-03-20T09:54:27.155Z,15.27
2019-03-20T09:55:26.293Z,15.35
2019-03-20T09:56:26.282Z,15.39
2019-03-20T09:57:26.288Z,15.49
2019-03-20T09:58:26.259Z,15.55
2019-03-20T09:59:26.252Z,15.62
2019-03-20T10:00:26.310Z,15.64
2019-03-20T10:01:26.235Z,15.82
2019-03-20T10:02:26.229Z,15.92
2019-03-20T10:03:26.220Z,16.12
2019-03-20T10:04:26.199Z,16.17
2019-03-20T10:05:26.187Z,16.33
2019-03-20T10:06:26.246Z,16.38
2019-03-20T10:07:26.178Z,16.53
2019-03-20T10:08:26.152Z,16.58
2019-03-20T10:09:26.173Z,16.71
2019-03-20T10:10:26.146Z,16.75
2019-03-20T10:11:26.136Z,16.75
2019-03-20T10:12:26.202Z,16.91
2019-03-20T10:13:26.115Z,16.97
2019-03-20T10:14:26.115Z,17.09
2019-03-20T10:15:26.120Z,17.20
2019-03-20T10:16:26.125Z,17.26
2019-03-20T10:17:26.092Z,17.38
2019-03-20T10:18:26.078Z,17.44
2019-03-20T10:19:26.062Z,17.68
2019-03-20T10:20:26.048Z,17.72
2019-03-20T10:21:26.015Z,17.86
2019-03-20T10:22:26.019Z,18.03
2019-03-20T10:23:26.003Z,17.87
2019-03-20T10:24:25.991Z,17.76
2019-03-20T10:25:26.000Z,17.76
2019-03-20T10:26:25.972Z,17.72
2019-03-20T10:27:26.009Z,17.83
2019-03-20T10:28:25.974Z,17.97
2019-03-20T10:29:25.939Z,18.15
2019-03-20T10:30:25.938Z,18.18
2019-03-20T10:31:25.924Z,18.19
2019-03-20T10:32:25.906Z,17.98
2019-03-20T10:33:25.915Z,18.03
2019-03-20T10:34:25.890Z,17.95
2019-03-20T10:35:25.873Z,17.92
2019-03-20T10:36:25.883Z,18.01
2019-03-20T10:37:25.866Z,18.11
2019-03-20T10:38:25.866Z,18.25
2019-03-20T10:39:25.831Z,18.33
2019-03-20T10:40:25.824Z,18.38
2019-03-20T10:41:25.856Z,18.44
2019-03-20T10:42:25.819Z,18.34
2019-03-20T10:43:25.815Z,18.35
2019-03-20T10:44:25.802Z,18.49
2019-03-20T10:45:25.797Z,18.50
2019-03-20T10:46:25.805Z,18.52
2019-03-20T10:47:25.782Z,18.50
2019-03-20T10:48:25.754Z,18.45
2019-03-20T10:49:25.746Z,18.41
2019-03-20T10:50:25.740Z,18.28
2019-03-20T10:51:25.724Z,18.25
2019-03-20T10:52:25.712Z,18.31
2019-03-20T10:53:25.894Z,18.03
2019-03-20T10:54:25.691Z,17.83
2019-03-20T10:55:25.682Z,17.65
2019-03-20T10:56:25.675Z,17.44
2019-03-20T10:57:25.668Z,17.29
2019-03-20T10:58:25.671Z,17.34
2019-03-20T10:59:25.636Z,17.09
2019-03-20T11:00:25.667Z,17.02
2019-03-20T11:01:25.620Z,17.19
2019-03-20T11:02:25.609Z,17.27
2019-03-20T11:03:25.638Z,17.26
2019-03-20T11:04:25.596Z,17.15
2019-03-20T11:05:25.618Z,17.12
2019-03-20T11:06:25.568Z,17.16
2019-03-20T11:07:25.563Z,17.27
2019-03-20T11:08:25.552Z,17.26
2019-03-20T11:09:25.531Z,17.31
2019-03-20T11:10:25.521Z,17.29
2019-03-20T11:11:27.373Z,17.45
2019-03-20T11:12:25.604Z,17.79
2019-03-20T11:13:25.569Z,17.82
2019-03-20T11:14:25.592Z,18.16
2019-03-20T11:15:25.477Z,18.25
2019-03-20T11:16:25.465Z,18.40
2019-03-20T11:17:25.446Z,18.60
2019-03-20T11:18:25.467Z,18.65
2019-03-20T11:19:25.426Z,18.86
2019-03-20T11:20:25.417Z,18.99
2019-03-20T11:21:25.425Z,19.16
2019-03-20T11:22:25.412Z,19.26
2019-03-20T11:23:25.400Z,19.36
2019-03-20T11:24:25.375Z,19.40
2019-03-20T11:25:25.369Z,19.45
2019-03-20T11:26:25.355Z,19.63
2019-03-20T11:27:27.594Z,19.69
2019-03-20T11:28:25.335Z,19.76
2019-03-20T11:29:25.405Z,19.82
2019-03-20T11:30:25.311Z,19.71
2019-03-20T11:31:25.297Z,19.40
2019-03-20T11:32:25.291Z,19.21
2019-03-20T11:33:25.286Z,19.11
2019-03-20T11:34:25.271Z,19.15
2019-03-20T11:35:25.255Z,19.00
2019-03-20T11:36:25.287Z,18.89
2019-03-20T11:37:25.234Z,18.81
2019-03-20T11:38:25.241Z,18.92
2019-03-20T11:39:29.551Z,19.00
2019-03-20T11:40:25.203Z,19.19
2019-03-20T11:41:25.228Z,19.18
2019-03-20T11:42:25.184Z,19.18
2019-03-20T11:43:25.183Z,19.40
2019-03-20T11:44:25.165Z,19.49
2019-03-20T11:45:25.205Z,19.67
2019-03-20T11:46:25.147Z,19.79
2019-03-20T11:47:25.131Z,20.04
2019-03-20T11:48:25.118Z,20.13
2019-03-20T11:49:25.110Z,20.31
2019-03-20T11:50:25.116Z,20.39
2019-03-20T11:51:25.122Z,20.62
2019-03-20T11:52:25.098Z,20.67
2019-03-20T11:53:25.062Z,20.66
2019-03-20T11:54:25.054Z,20.66
2019-03-20T11:55:25.045Z,20.78
2019-03-20T11:56:25.042Z,21.05
2019-03-20T11:57:25.026Z,21.21
2019-03-20T11:58:25.007Z,21.17
2019-03-20T11:59:25.006Z,21.21
2019-03-20T12:00:24.988Z,21.27
2019-03-20T12:01:24.983Z,21.17
2019-03-20T12:02:28.302Z,21.06
2019-03-20T12:03:24.956Z,20.82
2019-03-20T12:04:24.969Z,20.69
2019-03-20T12:05:24.940Z,20.59
2019-03-20T12:06:24.935Z,20.43
2019-03-20T12:07:24.918Z,20.36
2019-03-20T12:08:24.909Z,20.29
2019-03-20T12:09:24.913Z,20.24
2019-03-20T12:10:24.917Z,20.22
2019-03-20T12:11:24.878Z,20.11
2019-03-20T12:12:24.875Z,20.06
2019-03-20T12:13:24.890Z,20.11
2019-03-20T12:14:24.853Z,20.18
2019-03-20T12:15:24.841Z,20.13
2019-03-20T12:16:24.837Z,20.18
2019-03-20T12:17:24.813Z,20.28
2019-03-20T12:18:24.798Z,20.34
2019-03-20T12:19:24.814Z,20.26
2019-03-20T12:20:24.780Z,20.24
2019-03-20T12:21:24.773Z,20.04
2019-03-20T12:22:24.774Z,19.85
2019-03-20T12:23:24.781Z,19.66
2019-03-20T12:24:24.756Z,19.40
2019-03-20T12:25:24.728Z,19.41
2019-03-20T12:26:24.716Z,19.51
2019-03-20T12:27:24.711Z,19.58
2019-03-20T12:28:24.740Z,19.55
2019-03-20T12:29:24.720Z,19.63
2019-03-20T12:30:24.725Z,19.56
2019-03-20T12:31:24.665Z,19.62
2019-03-20T12:32:24.687Z,19.64
2019-03-20T12:33:24.652Z,19.76
2019-03-20T12:34:24.645Z,19.81
2019-03-20T12:35:24.656Z,19.81
2019-03-20T12:36:24.612Z,19.71
2019-03-20T12:37:24.602Z,19.62
2019-03-20T12:38:24.597Z,19.74
2019-03-20T12:39:24.588Z,19.70
2019-03-20T12:40:24.587Z,19.86
2019-03-20T12:41:24.561Z,19.82
2019-03-20T12:42:24.634Z,19.86
2019-03-20T12:43:24.556Z,19.77
2019-03-20T12:44:24.539Z,19.86
2019-03-20T12:45:24.580Z,19.81
2019-03-20T12:46:24.520Z,19.77
2019-03-20T12:47:24.528Z,19.76
2019-03-20T12:48:24.540Z,19.73
2019-03-20T12:49:24.553Z,19.66
2019-03-20T12:50:24.709Z,19.67
2019-03-20T12:51:24.508Z,19.59
2019-03-20T12:52:24.456Z,19.76
2019-03-20T12:53:24.570Z,19.67
2019-03-20T12:54:24.438Z,19.70
2019-03-20T12:55:24.436Z,19.59
2019-03-20T12:56:24.406Z,19.56
2019-03-20T12:57:24.395Z,19.52
2019-03-20T12:58:24.386Z,19.49
2019-03-20T12:59:24.383Z,19.55
2019-03-20T13:00:27.175Z,19.59
2019-03-20T13:01:24.428Z,19.56
2019-03-20T13:02:24.367Z,19.64
2019-03-20T13:03:24.333Z,19.63
2019-03-20T13:04:24.321Z,19.49
2019-03-20T13:05:24.302Z,19.49
2019-03-20T13:06:24.297Z,19.51
2019-03-20T13:07:24.297Z,19.26
2019-03-20T13:08:24.268Z,19.11
2019-03-20T13:09:24.273Z,18.78